Time;durP1;ratioP1;P1;durP2;ratioP2;P2;SDS_P1;SDS_P2;PMS_P1;PMS_P2;Temp;Humidity;BMP_temperature;BMP_pressure;BME280_temperature;BME280_humidity;BME280_pressure;Samples;Min_cycle;Max_cycle;Signal;HPM_P1;HPM_P2
2022/08/31 00:03:58;;;;;;;0.50;0.50;;;15.80;99.90;;;;;;5010426;28;20310;-81
2022/08/31 00:06:24;;;;;;;0.57;0.47;;;15.70;99.90;;;;;;4995903;28;20248;-81
2022/08/31 00:08:50;;;;;;;0.50;0.47;;;15.50;99.90;;;;;;5013010;28;20238;-80
2022/08/31 00:11:18;;;;;;;0.50;0.40;;;15.40;99.90;;;;;;5009749;28;20218;-81
2022/08/31 00:13:45;;;;;;;0.60;0.60;;;15.30;99.90;;;;;;5013400;28;20220;-80
2022/08/31 00:16:11;;;;;;;0.93;0.53;;;15.30;99.90;;;;;;5011729;28;20309;-81
2022/08/31 00:18:37;;;;;;;3.13;0.80;;;15.20;99.90;;;;;;5012817;28;20214;-81
2022/08/31 00:21:04;;;;;;;4.30;0.70;;;15.20;99.90;;;;;;5003178;28;20220;-81
2022/08/31 00:23:30;;;;;;;0.57;0.57;;;15.10;99.90;;;;;;4982442;28;20266;-81
2022/08/31 00:25:56;;;;;;;0.60;0.60;;;15.00;99.90;;;;;;4994230;28;20192;-81
2022/08/31 00:28:22;;;;;;;0.40;0.30;;;15.00;99.90;;;;;;4993163;28;20247;-81
2022/08/31 00:30:48;;;;;;;0.93;0.60;;;15.00;99.90;;;;;;4992968;28;20255;-82
2022/08/31 00:33:15;;;;;;;0.47;0.47;;;14.90;99.90;;;;;;5004069;28;20236;-82
2022/08/31 00:35:41;;;;;;;0.70;0.70;;;14.90;99.90;;;;;;4993067;28;21557;-81
2022/08/31 00:38:08;;;;;;;0.70;0.70;;;14.80;99.90;;;;;;5013886;28;20187;-82
2022/08/31 00:40:35;;;;;;;1.23;0.90;;;14.80;99.90;;;;;;4995439;28;20231;-81
2022/08/31 00:43:01;;;;;;;5.57;0.90;;;14.70;99.90;;;;;;5007293;28;20239;-82
2022/08/31 00:45:28;;;;;;;0.77;0.57;;;14.70;99.90;;;;;;5012736;28;20227;-83
2022/08/31 00:47:54;;;;;;;0.90;0.70;;;14.60;99.90;;;;;;5008860;28;20219;-81
2022/08/31 00:50:22;;;;;;;0.53;0.50;;;14.60;99.90;;;;;;5015158;28;20242;-81
2022/08/31 00:52:58;;;;;;;0.73;0.60;;;14.60;99.90;;;;;;5012034;28;20222;-81
2022/08/31 00:55:32;;;;;;;0.60;0.60;;;14.50;99.90;;;;;;5010219;28;20585;-81
2022/08/31 00:58:02;;;;;;;0.60;0.60;;;14.50;99.90;;;;;;5012485;28;20227;-80
2022/08/31 01:00:28;;;;;;;2.63;0.70;;;14.60;99.90;;;;;;5017478;28;20250;-79
2022/08/31 01:02:56;;;;;;;0.87;0.87;;;14.60;99.90;;;;;;5011994;28;20223;-80
2022/08/31 01:05:22;;;;;;;0.80;0.80;;;14.70;99.90;;;;;;5013089;28;20187;-81
2022/08/31 01:07:49;;;;;;;0.50;0.50;;;14.70;99.90;;;;;;5008237;28;20287;-81
2022/08/31 01:10:17;;;;;;;1.17;0.67;;;14.70;99.90;;;;;;5012660;28;20636;-81
2022/08/31 01:12:46;;;;;;;0.50;0.50;;;14.60;99.90;;;;;;5012467;28;20223;-82
2022/08/31 01:15:14;;;;;;;0.60;0.53;;;14.50;99.90;;;;;;5007638;28;20244;-81
2022/08/31 01:17:41;;;;;;;0.80;0.50;;;14.50;99.90;;;;;;5012026;28;20598;-81
2022/08/31 01:20:21;;;;;;;0.57;0.40;;;14.40;99.90;;;;;;5011942;28;20187;-81
2022/08/31 01:23:11;;;;;;;0.77;0.60;;;14.30;99.90;;;;;;4992328;28;20675;-80
2022/08/31 01:25:40;;;;;;;1.23;0.60;;;14.30;99.90;;;;;;4991432;28;20216;-80
2022/08/31 01:28:08;;;;;;;1.03;0.97;;;14.20;99.90;;;;;;4991926;28;20219;-80
2022/08/31 01:30:35;;;;;;;0.70;0.70;;;14.20;99.90;;;;;;5001943;28;20234;-81
2022/08/31 01:33:01;;;;;;;0.40;0.40;;;14.10;99.90;;;;;;5011530;28;20234;-82
2022/08/31 01:35:27;;;;;;;0.70;0.63;;;14.10;99.90;;;;;;5011325;28;20195;-80
2022/08/31 01:37:54;;;;;;;1.03;0.97;;;14.10;99.90;;;;;;5011968;28;20290;-81
2022/08/31 01:40:23;;;;;;;0.73;0.60;;;14.00;99.90;;;;;;5010999;28;20684;-84
2022/08/31 01:42:49;;;;;;;0.37;0.37;;;14.00;99.90;;;;;;5011658;28;20234;-81
2022/08/31 01:45:16;;;;;;;0.50;0.50;;;13.90;99.90;;;;;;5005313;28;20219;-81
2022/08/31 01:47:41;;;;;;;0.50;0.50;;;13.90;99.90;;;;;;5002370;28;20229;-81
2022/08/31 01:50:08;;;;;;;0.47;0.47;;;13.90;99.90;;;;;;5009997;28;20207;-81
2022/08/31 01:52:36;;;;;;;0.50;0.50;;;13.90;99.90;;;;;;4990177;28;20235;-79
2022/08/31 01:55:04;;;;;;;0.93;0.37;;;13.90;99.90;;;;;;5010475;28;20227;-80
2022/08/31 01:57:30;;;;;;;0.50;0.47;;;13.80;99.90;;;;;;5000534;28;20227;-83
2022/08/31 01:59:59;;;;;;;0.50;0.50;;;13.80;99.90;;;;;;4995697;28;20223;-80
2022/08/31 02:02:25;;;;;;;0.43;0.43;;;13.80;99.90;;;;;;5010876;28;20282;-81
2022/08/31 02:04:51;;;;;;;2.47;0.70;;;13.80;99.90;;;;;;4994339;28;20271;-80
2022/08/31 02:07:17;;;;;;;0.70;0.50;;;13.70;99.90;;;;;;5010601;28;20273;-81
2022/08/31 02:09:42;;;;;;;0.53;0.53;;;13.70;99.90;;;;;;5010092;28;20317;-81
2022/08/31 02:12:08;;;;;;;0.37;0.37;;;13.70;99.90;;;;;;5010761;28;20302;-83
2022/08/31 02:14:34;;;;;;;0.50;0.43;;;13.70;99.90;;;;;;5010738;28;20195;-81
2022/08/31 02:16:59;;;;;;;0.67;0.50;;;13.70;99.90;;;;;;4994224;28;20187;-81
2022/08/31 02:19:25;;;;;;;0.27;0.27;;;13.70;99.90;;;;;;5010700;28;20266;-81
2022/08/31 02:21:51;;;;;;;0.33;0.33;;;13.70;99.90;;;;;;5001011;28;20266;-81
2022/08/31 02:24:16;;;;;;;0.70;0.50;;;13.70;99.90;;;;;;5006342;28;20689;-81
2022/08/31 02:26:42;;;;;;;0.70;0.60;;;13.60;99.90;;;;;;5009036;28;20243;-81
2022/08/31 02:29:08;;;;;;;0.90;0.53;;;13.60;99.90;;;;;;5011391;28;20199;-82
2022/08/31 02:31:35;;;;;;;0.47;0.47;;;13.50;99.90;;;;;;5009783;28;20700;-81
2022/08/31 02:34:00;;;;;;;0.60;0.60;;;13.50;99.90;;;;;;4997438;28;20238;-82
2022/08/31 02:36:27;;;;;;;0.50;0.50;;;13.40;99.90;;;;;;5005368;28;20594;-80
2022/08/31 02:38:52;;;;;;;0.87;0.60;;;13.40;99.90;;;;;;5010219;28;20685;-81
2022/08/31 02:41:18;;;;;;;0.93;0.70;;;13.30;99.90;;;;;;5010075;28;20307;-80
2022/08/31 02:43:44;;;;;;;0.60;0.60;;;13.30;99.90;;;;;;5010388;28;20248;-81
2022/08/31 02:46:10;;;;;;;0.40;0.40;;;13.30;99.90;;;;;;4996783;28;20680;-80
2022/08/31 02:48:36;;;;;;;0.70;0.70;;;13.30;99.90;;;;;;5010050;28;20625;-80
2022/08/31 02:51:05;;;;;;;0.80;0.60;;;13.20;99.90;;;;;;5010439;28;20231;-81
2022/08/31 02:53:31;;;;;;;0.70;0.60;;;13.20;99.90;;;;;;5009598;28;20199;-80
2022/08/31 02:55:57;;;;;;;0.60;0.60;;;13.20;99.90;;;;;;5010648;28;20187;-81
2022/08/31 02:58:22;;;;;;;0.63;0.63;;;13.20;99.90;;;;;;4992437;28;20242;-80
2022/08/31 03:00:48;;;;;;;0.50;0.50;;;13.20;99.90;;;;;;4995300;28;20216;-81
2022/08/31 03:03:14;;;;;;;2.10;0.70;;;13.20;99.90;;;;;;4984863;28;20219;-80
2022/08/31 03:05:41;;;;;;;0.63;0.60;;;13.20;99.90;;;;;;4990791;28;20303;-81
2022/08/31 03:08:07;;;;;;;0.70;0.70;;;13.20;99.90;;;;;;4991996;28;20543;-80
2022/08/31 03:10:32;;;;;;;0.70;0.70;;;13.20;99.90;;;;;;4995372;28;20244;-80
2022/08/31 03:12:58;;;;;;;0.60;0.60;;;13.30;99.90;;;;;;5004571;28;20629;-81
2022/08/31 03:15:25;;;;;;;0.60;0.60;;;13.30;99.90;;;;;;5009807;28;20218;-80
2022/08/31 03:17:51;;;;;;;0.60;0.50;;;13.20;99.90;;;;;;4997056;28;20216;-81
2022/08/31 03:20:18;;;;;;;0.60;0.50;;;13.30;99.90;;;;;;4982809;28;20203;-80
2022/08/31 03:22:44;;;;;;;0.60;0.60;;;13.30;99.90;;;;;;4990752;28;20184;-80
2022/08/31 03:25:10;;;;;;;0.43;0.43;;;13.40;99.90;;;;;;5008434;28;20225;-80
2022/08/31 03:27:36;;;;;;;0.40;0.40;;;13.40;99.90;;;;;;5013548;28;20218;-80
2022/08/31 03:30:06;;;;;;;0.40;0.40;;;13.50;99.90;;;;;;5014082;28;20314;-80
2022/08/31 03:32:32;;;;;;;1.23;0.63;;;13.50;99.90;;;;;;5006509;28;20213;-80
2022/08/31 03:34:59;;;;;;;0.60;0.50;;;13.50;99.90;;;;;;5000759;28;20279;-80
2022/08/31 03:37:25;;;;;;;0.50;0.50;;;13.50;99.90;;;;;;5013351;28;20225;-80
2022/08/31 03:39:51;;;;;;;0.83;0.70;;;13.50;99.90;;;;;;5011841;28;20226;-81
2022/08/31 03:42:17;;;;;;;1.20;0.90;;;13.50;99.90;;;;;;5004501;28;20581;-80
2022/08/31 03:44:43;;;;;;;0.67;0.60;;;13.50;99.90;;;;;;5009117;28;20215;-80
2022/08/31 03:47:09;;;;;;;0.70;0.70;;;13.50;99.90;;;;;;5000943;28;20196;-80
2022/08/31 03:49:34;;;;;;;0.50;0.50;;;13.40;99.90;;;;;;5003178;28;20617;-80
2022/08/31 03:52:01;;;;;;;0.40;0.40;;;13.40;99.90;;;;;;5013393;28;20708;-80
2022/08/31 03:54:27;;;;;;;0.50;0.50;;;13.40;99.90;;;;;;5013150;28;20211;-80
2022/08/31 03:56:53;;;;;;;0.93;0.60;;;13.30;99.90;;;;;;5003826;28;21018;-80
2022/08/31 03:59:18;;;;;;;2.20;0.70;;;13.30;99.90;;;;;;5022307;28;20270;-80
2022/08/31 04:01:44;;;;;;;0.50;0.50;;;13.30;99.90;;;;;;4993258;28;20201;-80
2022/08/31 04:04:12;;;;;;;0.50;0.50;;;13.30;99.90;;;;;;4993347;28;20322;-80
2022/08/31 04:06:41;;;;;;;2.53;0.90;;;13.40;99.90;;;;;;5004484;28;20711;-80
2022/08/31 04:09:07;;;;;;;3.47;0.80;;;13.40;99.90;;;;;;5003696;28;20249;-80
2022/08/31 04:11:33;;;;;;;1.17;0.70;;;13.30;99.90;;;;;;5007908;28;20215;-80
2022/08/31 04:13:59;;;;;;;0.57;0.57;;;13.30;99.90;;;;;;5013466;28;20237;-81
2022/08/31 04:16:25;;;;;;;0.53;0.53;;;13.20;99.90;;;;;;5001188;28;20220;-83
2022/08/31 04:18:51;;;;;;;0.90;0.90;;;13.20;99.90;;;;;;5000565;28;20223;-80
2022/08/31 04:21:24;;;;;;;0.83;0.83;;;13.20;99.90;;;;;;5012377;28;20747;-80
2022/08/31 04:23:51;;;;;;;0.70;0.70;;;13.20;99.90;;;;;;5020395;28;20276;-80
2022/08/31 04:26:21;;;;;;;1.03;0.60;;;13.10;99.90;;;;;;5012365;28;20744;-80
2022/08/31 04:28:47;;;;;;;1.23;0.90;;;12.90;99.90;;;;;;5009121;28;20187;-81
2022/08/31 04:31:14;;;;;;;0.70;0.70;;;12.70;99.90;;;;;;5003218;28;20465;-81
2022/08/31 04:33:41;;;;;;;0.60;0.60;;;12.50;99.90;;;;;;5010652;28;20309;-80
2022/08/31 04:36:09;;;;;;;0.80;0.70;;;12.50;99.90;;;;;;5012309;28;20269;-80
2022/08/31 04:38:35;;;;;;;0.60;0.57;;;12.60;99.90;;;;;;5011930;28;20241;-81
2022/08/31 04:41:08;;;;;;;0.93;0.90;;;12.70;99.90;;;;;;5013120;28;20564;-81
2022/08/31 04:43:34;;;;;;;1.97;0.90;;;12.80;99.90;;;;;;5013715;28;20223;-80
2022/08/31 04:46:02;;;;;;;19.90;1.33;;;12.90;99.90;;;;;;5009781;28;20310;-81
2022/08/31 04:48:28;;;;;;;2.30;1.10;;;12.90;99.90;;;;;;5011292;28;20227;-80
2022/08/31 04:51:24;;;;;;;1.40;1.10;;;12.90;99.90;;;;;;5011216;28;20285;-80
2022/08/31 04:53:51;;;;;;;0.80;0.80;;;13.00;99.90;;;;;;4995399;28;20751;-79
2022/08/31 04:56:26;;;;;;;1.03;0.93;;;12.90;99.90;;;;;;5013288;28;20199;-81
2022/08/31 04:58:58;;;;;;;0.90;0.70;;;12.90;99.90;;;;;;5009993;28;20186;-81
2022/08/31 05:01:25;;;;;;;4.30;1.43;;;12.90;99.90;;;;;;5011897;28;20218;-81
2022/08/31 05:03:52;;;;;;;5.37;1.03;;;12.90;99.90;;;;;;5013025;28;20859;-81
2022/08/31 05:06:23;;;;;;;7.63;1.00;;;13.00;99.90;;;;;;5012758;28;20226;-80
2022/08/31 05:08:54;;;;;;;2.43;1.10;;;13.10;99.90;;;;;;5012616;28;20231;-81
2022/08/31 05:11:21;;;;;;;0.67;0.67;;;13.20;99.90;;;;;;5012579;28;20211;-80
2022/08/31 05:13:47;;;;;;;0.50;0.50;;;13.30;99.90;;;;;;5011186;28;20719;-80
2022/08/31 05:16:14;;;;;;;1.50;0.90;;;13.40;99.90;;;;;;5011734;28;20212;-81
2022/08/31 05:18:42;;;;;;;0.70;0.70;;;13.40;99.90;;;;;;4985610;28;20617;-80
2022/08/31 05:21:27;;;;;;;0.97;0.97;;;13.50;99.90;;;;;;4985615;28;20709;-83
2022/08/31 05:23:56;;;;;;;8.13;1.33;;;13.60;99.90;;;;;;4983839;28;20216;-81
2022/08/31 05:26:26;;;;;;;0.97;0.80;;;13.70;99.90;;;;;;4988038;28;20266;-82
2022/08/31 05:28:52;;;;;;;1.03;0.73;;;13.80;99.90;;;;;;4991997;28;20188;-80
2022/08/31 05:31:18;;;;;;;8.30;0.90;;;13.90;99.90;;;;;;4992120;28;20239;-80
2022/08/31 05:33:44;;;;;;;0.80;0.80;;;13.90;99.90;;;;;;4974146;28;20223;-81
2022/08/31 05:36:11;;;;;;;1.23;0.90;;;13.90;99.90;;;;;;4982608;28;20685;-81
2022/08/31 05:38:37;;;;;;;1.47;0.97;;;14.00;99.90;;;;;;4983194;28;20232;-83
2022/08/31 05:41:04;;;;;;;0.97;0.97;;;14.00;99.90;;;;;;4982931;28;20197;-82
2022/08/31 05:43:31;;;;;;;1.07;1.03;;;14.10;99.90;;;;;;4992480;28;20208;-81
2022/08/31 05:45:57;;;;;;;0.77;0.77;;;14.20;99.90;;;;;;4991085;28;20227;-83
2022/08/31 05:48:23;;;;;;;0.70;0.70;;;14.20;99.90;;;;;;4991752;28;20282;-81
2022/08/31 05:50:50;;;;;;;2.43;0.70;;;14.30;99.90;;;;;;4989214;28;20229;-81
2022/08/31 05:53:16;;;;;;;0.60;0.60;;;14.40;99.90;;;;;;5011314;28;20559;-82
2022/08/31 05:55:42;;;;;;;1.10;1.00;;;14.50;99.90;;;;;;5006458;28;20261;-81
2022/08/31 05:58:08;;;;;;;1.20;0.90;;;14.60;99.90;;;;;;5011439;28;20223;-81
2022/08/31 06:00:37;;;;;;;1.33;1.10;;;14.80;99.90;;;;;;5011683;28;20222;-81
2022/08/31 06:03:03;;;;;;;1.60;0.70;;;15.30;99.90;;;;;;5019015;28;20223;-83
2022/08/31 06:05:29;;;;;;;1.40;1.07;;;17.10;99.90;;;;;;5011293;28;20245;-80
2022/08/31 06:07:55;;;;;;;1.13;1.03;;;19.20;99.90;;;;;;5011795;28;20261;-80
2022/08/31 06:10:21;;;;;;;1.00;0.90;;;20.80;99.90;;;;;;5011840;28;20238;-79
2022/08/31 06:12:47;;;;;;;3.47;1.10;;;22.20;99.90;;;;;;5010155;28;20235;-80
2022/08/31 06:15:14;;;;;;;1.57;1.00;;;23.40;99.90;;;;;;5001942;28;20230;-81
2022/08/31 06:17:41;;;;;;;1.00;0.90;;;24.30;99.90;;;;;;5011492;28;20222;-82
2022/08/31 06:20:08;;;;;;;0.73;0.73;;;24.50;99.90;;;;;;5009671;28;20198;-83
2022/08/31 06:22:35;;;;;;;0.87;0.87;;;24.70;99.90;;;;;;5008990;28;20227;-84
2022/08/31 06:25:03;;;;;;;2.77;1.10;;;24.40;99.90;;;;;;5012025;28;20223;-86
2022/08/31 06:27:29;;;;;;;0.90;0.87;;;24.30;99.90;;;;;;5013028;28;20302;-82
2022/08/31 06:29:56;;;;;;;1.20;0.95;;;23.30;99.90;;;;;;4992877;28;20632;-80
2022/08/31 06:32:22;;;;;;;1.23;0.75;;;21.80;99.90;;;;;;5002317;28;20208;-81
2022/08/31 06:34:48;;;;;;;1.60;0.90;;;20.60;99.90;;;;;;5006047;28;20200;-80
2022/08/31 06:37:14;;;;;;;1.20;0.93;;;19.60;99.90;;;;;;4997586;28;20241;-79
2022/08/31 06:39:39;;;;;;;1.03;0.90;;;18.80;99.90;;;;;;5010132;28;20229;-80
2022/08/31 06:42:06;;;;;;;1.13;1.10;;;18.30;99.90;;;;;;5010245;28;20592;-81
2022/08/31 06:44:31;;;;;;;0.97;0.97;;;18.00;99.90;;;;;;5011387;28;20195;-81
2022/08/31 06:46:57;;;;;;;1.03;0.93;;;17.90;99.90;;;;;;5007527;28;20196;-81
2022/08/31 06:49:23;;;;;;;1.57;1.07;;;18.10;99.90;;;;;;4991906;28;20234;-80
2022/08/31 06:51:50;;;;;;;1.00;0.80;;;18.40;99.90;;;;;;5000060;28;20741;-80
2022/08/31 06:54:20;;;;;;;0.70;0.70;;;18.60;99.90;;;;;;5005247;28;20699;-81
2022/08/31 06:56:46;;;;;;;1.30;0.93;;;18.90;99.90;;;;;;5011241;28;20215;-80
2022/08/31 06:59:12;;;;;;;0.70;0.70;;;20.00;99.90;;;;;;5011664;28;20184;-80
2022/08/31 07:01:38;;;;;;;1.10;0.87;;;21.20;99.90;;;;;;5011181;28;20547;-81
2022/08/31 07:04:07;;;;;;;4.10;1.27;;;21.70;99.90;;;;;;5000046;28;20258;-81
2022/08/31 07:06:39;;;;;;;1.00;0.90;;;22.10;99.90;;;;;;5002854;28;20212;-82
2022/08/31 07:09:08;;;;;;;0.80;0.80;;;22.60;99.90;;;;;;5004771;28;20231;-80
2022/08/31 07:11:37;;;;;;;2.60;1.10;;;22.50;99.90;;;;;;5004723;28;20211;-81
2022/08/31 07:14:04;;;;;;;2.58;0.90;;;22.20;99.90;;;;;;4998330;28;20187;-81
2022/08/31 07:16:31;;;;;;;1.17;0.80;;;22.70;99.90;;;;;;4998842;28;20218;-81
2022/08/31 07:18:59;;;;;;;1.60;1.05;;;22.50;99.90;;;;;;4998416;28;20953;-81
2022/08/31 07:21:33;;;;;;;1.83;0.93;;;21.90;99.90;;;;;;5000941;28;20247;-80
2022/08/31 07:24:01;;;;;;;0.98;0.80;;;21.90;99.90;;;;;;5011168;28;20218;-81
2022/08/31 07:26:31;;;;;;;1.23;1.13;;;22.10;99.90;;;;;;5009619;28;20211;-82
2022/08/31 07:28:58;;;;;;;4.13;0.93;;;22.50;99.90;;;;;;5010464;28;20518;-82
2022/08/31 07:31:39;;;;;;;0.85;0.70;;;22.70;99.90;;;;;;5001761;28;20235;-80
2022/08/31 07:34:06;;;;;;;1.17;0.80;;;22.80;99.90;;;;;;5007890;28;20309;-83
2022/08/31 07:42:07;;;;;;;0.80;0.80;;;22.10;99.90;;;;;;5010924;28;20293;-82
2022/08/31 07:42:10;;;;;;;0.68;0.68;;;22.40;99.90;;;;;;5004355;28;20665;-80
2022/08/31 07:44:40;;;;;;;0.52;0.52;;;22.30;99.90;;;;;;5011103;28;20223;-81
2022/08/31 07:47:10;;;;;;;0.93;0.60;;;22.10;99.90;;;;;;5011250;28;20191;-81
2022/08/31 07:49:46;;;;;;;0.65;0.65;;;21.90;99.90;;;;;;5000862;28;20234;-80
2022/08/31 07:52:15;;;;;;;0.90;0.60;;;22.10;99.90;;;;;;5007414;28;20285;-81
2022/08/31 07:54:43;;;;;;;1.63;0.70;;;21.80;99.90;;;;;;5011018;28;20302;-81
2022/08/31 07:57:09;;;;;;;1.27;0.60;;;22.10;99.90;;;;;;5010850;28;20743;-81
2022/08/31 07:59:38;;;;;;;0.70;0.60;;;22.60;99.90;;;;;;5014053;28;20547;-80
2022/08/31 08:02:04;;;;;;;0.68;0.68;;;22.70;99.90;;;;;;5001931;28;20203;-82
2022/08/31 08:04:31;;;;;;;0.90;0.57;;;22.40;99.90;;;;;;5010934;28;20230;-81
2022/08/31 08:06:59;;;;;;;0.60;0.60;;;22.20;99.90;;;;;;5010559;28;20215;-83
2022/08/31 08:09:27;;;;;;;0.60;0.60;;;22.10;99.90;;;;;;5013633;28;20310;-82
2022/08/31 08:11:56;;;;;;;0.50;0.50;;;22.10;99.90;;;;;;5012409;28;20241;-82
2022/08/31 08:14:23;;;;;;;1.80;0.68;;;21.80;99.90;;;;;;5012144;28;20282;-83
2022/08/31 08:16:49;;;;;;;1.40;0.80;;;21.50;99.90;;;;;;5014433;28;20278;-82
2022/08/31 08:19:15;;;;;;;2.28;0.80;;;21.60;99.90;;;;;;5011345;28;20736;-82
2022/08/31 08:21:42;;;;;;;0.95;0.80;;;21.80;99.90;;;;;;4991222;28;20238;-82
2022/08/31 08:24:09;;;;;;;0.60;0.60;;;21.90;99.90;;;;;;4984084;28;20255;-80
2022/08/31 08:26:36;;;;;;;0.50;0.50;;;21.60;99.90;;;;;;4973170;28;20215;-81
2022/08/31 08:29:04;;;;;;;2.67;0.80;;;21.90;99.90;;;;;;4984164;28;20196;-82
2022/08/31 08:31:30;;;;;;;1.27;0.65;;;22.00;99.90;;;;;;5010317;28;20692;-82
2022/08/31 08:33:57;;;;;;;0.80;0.70;;;21.60;99.90;;;;;;5013672;28;20230;-81
2022/08/31 08:36:23;;;;;;;1.15;0.88;;;22.20;99.90;;;;;;5013694;28;20282;-82
2022/08/31 08:38:52;;;;;;;0.80;0.80;;;22.80;99.90;;;;;;5007008;28;20225;-81
2022/08/31 08:41:26;;;;;;;1.05;0.88;;;23.00;99.90;;;;;;5010320;28;20237;-81
2022/08/31 08:43:55;;;;;;;0.60;0.60;;;23.10;99.90;;;;;;5007332;28;20637;-80
2022/08/31 08:46:38;;;;;;;0.70;0.70;;;22.40;99.90;;;;;;5009959;28;20218;-80
2022/08/31 08:49:27;;;;;;;1.25;0.50;;;22.30;99.90;;;;;;5013286;28;20686;-81
2022/08/31 08:52:05;;;;;;;0.60;0.60;;;21.10;99.90;;;;;;5006520;28;20693;-80
2022/08/31 08:54:37;;;;;;;0.80;0.80;;;20.60;99.90;;;;;;5003591;28;20685;-83
2022/08/31 08:57:13;;;;;;;0.90;0.60;;;20.50;99.90;;;;;;5010131;28;20226;-82
2022/08/31 08:59:43;;;;;;;0.63;0.63;;;20.70;99.90;;;;;;5015401;28;20675;-82
2022/08/31 09:02:35;;;;;;;0.52;0.52;;;21.40;99.90;;;;;;5013410;28;20202;-82
2022/08/31 09:05:07;;;;;;;1.37;0.80;;;22.00;99.90;;;;;;5001747;28;20225;-83
2022/08/31 09:07:58;;;;;;;0.60;0.50;;;22.40;99.90;;;;;;5013080;28;20302;-82
2022/08/31 09:10:30;;;;;;;1.95;0.70;;;22.50;99.90;;;;;;4971578;28;20237;-81
2022/08/31 09:13:11;;;;;;;0.73;0.73;;;21.90;99.90;;;;;;4974111;28;20239;-82
2022/08/31 09:16:07;;;;;;;0.52;0.52;;;21.60;99.90;;;;;;4966595;28;20236;-81
2022/08/31 09:18:44;;;;;;;0.60;0.60;;;21.60;99.90;;;;;;4961923;28;20220;-81
2022/08/31 09:21:16;;;;;;;0.95;0.60;;;21.80;99.90;;;;;;4957525;28;20248;-80
2022/08/31 09:23:53;;;;;;;0.88;0.88;;;22.30;99.90;;;;;;4960356;28;20627;-82
2022/08/31 09:26:24;;;;;;;0.82;0.60;;;22.40;99.90;;;;;;4974017;28;20208;-81
2022/08/31 09:28:51;;;;;;;0.77;0.52;;;22.80;99.90;;;;;;4966085;28;20181;-82
2022/08/31 09:31:36;;;;;;;0.90;0.75;;;23.20;99.90;;;;;;4962355;28;20571;-82
2022/08/31 09:34:05;;;;;;;0.50;0.50;;;22.80;99.90;;;;;;4962876;28;20592;-81
2022/08/31 09:36:39;;;;;;;0.60;0.60;;;22.70;99.90;;;;;;4969123;28;20317;-81
2022/08/31 09:39:14;;;;;;;2.08;0.70;;;22.60;99.90;;;;;;4973258;28;20591;-80
2022/08/31 09:41:40;;;;;;;0.65;0.65;;;23.00;99.90;;;;;;4965412;28;20224;-82
2022/08/31 09:44:30;;;;;;;1.58;0.60;;;23.60;99.90;;;;;;4968815;28;20275;-81
2022/08/31 09:47:00;;;;;;;0.90;0.80;;;22.90;99.90;;;;;;4971272;28;20216;-81
2022/08/31 09:49:29;;;;;;;0.82;0.50;;;22.50;99.90;;;;;;4973693;28;20224;-82
2022/08/31 09:55:12;;;;;;;0.82;0.65;;;23.00;99.90;;;;;;4973165;28;20244;-81
2022/08/31 09:55:12;;;;;;;0.63;0.63;;;22.70;99.90;;;;;;4966153;28;20624;-82
2022/08/31 09:58:01;;;;;;;0.60;0.60;;;22.40;99.90;;;;;;4968942;28;20232;-81
2022/08/31 10:00:40;;;;;;;0.68;0.55;;;22.10;99.90;;;;;;4971563;28;20231;-85
2022/08/31 10:03:36;;;;;;;3.45;0.60;;;22.10;99.90;;;;;;4973182;28;20235;-82
2022/08/31 10:06:02;;;;;;;0.60;0.60;;;22.10;99.90;;;;;;4968034;28;20220;-81
2022/08/31 10:08:45;;;;;;;1.30;0.70;;;22.10;99.90;;;;;;4969240;28;20235;-81
2022/08/31 10:11:20;;;;;;;0.60;0.60;;;22.30;99.90;;;;;;5008969;28;20214;-81
2022/08/31 10:13:56;;;;;;;0.50;0.50;;;22.50;99.90;;;;;;5012491;28;20232;-82
2022/08/31 10:16:30;;;;;;;1.25;0.73;;;22.90;99.90;;;;;;5012055;28;20306;-80
2022/08/31 10:19:12;;;;;;;0.65;0.60;;;23.10;99.90;;;;;;5019242;28;20214;-82
2022/08/31 10:21:50;;;;;;;0.52;0.50;;;22.90;99.90;;;;;;5009762;28;20223;-81
2022/08/31 10:24:33;;;;;;;4.68;0.73;;;22.80;99.90;;;;;;5003644;28;20268;-82
2022/08/31 10:27:15;;;;;;;0.82;0.82;;;22.80;99.90;;;;;;4998356;28;20306;-82
2022/08/31 10:30:00;;;;;;;0.80;0.80;;;22.50;99.90;;;;;;4999059;28;20211;-81
2022/08/31 10:32:38;;;;;;;1.00;0.90;;;21.80;99.90;;;;;;5006341;28;20262;-82
2022/08/31 10:35:16;;;;;;;0.77;0.77;;;21.90;99.90;;;;;;5011956;28;20249;-82
2022/08/31 10:38:07;;;;;;;0.90;0.65;;;21.50;99.90;;;;;;4989258;28;20220;-81
2022/08/31 10:40:48;;;;;;;1.33;0.70;;;22.00;99.90;;;;;;5010535;28;20298;-81
2022/08/31 10:43:20;;;;;;;0.60;0.60;;;22.50;99.90;;;;;;5009242;28;20726;-82
2022/08/31 10:45:50;;;;;;;0.50;0.50;;;22.80;99.90;;;;;;5011591;28;20704;-82
2022/08/31 10:48:19;;;;;;;0.65;0.60;;;22.70;99.90;;;;;;5006897;28;20212;-80
2022/08/31 10:51:04;;;;;;;0.60;0.60;;;21.90;99.90;;;;;;5013150;28;20231;-81
2022/08/31 10:53:50;;;;;;;0.60;0.60;;;22.20;99.90;;;;;;5008927;28;20683;-81
2022/08/31 10:56:36;;;;;;;0.32;0.32;;;22.40;99.90;;;;;;5011837;28;20202;-80
2022/08/31 10:59:18;;;;;;;0.50;0.50;;;22.40;99.90;;;;;;4991459;28;20211;-82
2022/08/31 11:01:55;;;;;;;3.83;1.17;;;22.40;99.90;;;;;;4988190;28;20204;-81
2022/08/31 11:04:40;;;;;;;1.48;0.80;;;22.60;99.90;;;;;;4991590;28;20223;-82
2022/08/31 11:07:05;;;;;;;5.25;1.17;;;22.40;99.90;;;;;;5002654;28;20211;-83
2022/08/31 11:09:59;;;;;;;0.60;0.60;;;22.50;99.90;;;;;;5005943;28;20292;-81
2022/08/31 11:12:41;;;;;;;0.70;0.70;;;22.40;99.90;;;;;;5001833;28;20285;-83
2022/08/31 11:15:08;;;;;;;0.90;0.80;;;21.80;99.90;;;;;;5008899;28;20235;-83
2022/08/31 11:18:04;;;;;;;2.67;0.77;;;21.90;99.90;;;;;;5011310;28;20204;-82
2022/08/31 11:21:12;;;;;;;0.43;0.43;;;22.40;99.90;;;;;;5006222;28;20649;-81
2022/08/31 11:23:47;;;;;;;0.85;0.85;;;22.60;99.90;;;;;;5024836;28;20222;-81
2022/08/31 11:26:26;;;;;;;0.40;0.40;;;22.60;99.90;;;;;;5007167;28;20609;-81
2022/08/31 11:29:12;;;;;;;0.68;0.57;;;22.00;99.90;;;;;;5009066;28;20265;-80
2022/08/31 11:31:39;;;;;;;0.50;0.50;;;22.00;99.90;;;;;;5007447;28;20622;-82
2022/08/31 11:34:15;;;;;;;1.53;0.70;;;22.00;99.90;;;;;;5006935;28;20302;-81
2022/08/31 11:36:49;;;;;;;1.90;1.07;;;22.00;99.90;;;;;;5008522;28;20214;-81
2022/08/31 11:39:18;;;;;;;0.77;0.60;;;22.00;99.90;;;;;;5010887;28;20218;-81
2022/08/31 11:41:53;;;;;;;0.60;0.47;;;22.00;99.90;;;;;;5011097;28;20704;-81
2022/08/31 11:44:32;;;;;;;1.67;0.77;;;22.00;99.90;;;;;;5013520;28;20198;-81
2022/08/31 11:47:05;;;;;;;1.15;0.95;;;21.90;99.90;;;;;;5004272;28;20192;-80
2022/08/31 11:49:48;;;;;;;2.30;0.70;;;21.80;99.90;;;;;;5014193;28;20334;-81
2022/08/31 11:52:20;;;;;;;1.47;0.80;;;21.60;99.90;;;;;;5006521;28;20223;-80
2022/08/31 11:54:47;;;;;;;3.00;0.73;;;21.80;99.90;;;;;;5011295;28;20559;-81
2022/08/31 11:57:19;;;;;;;0.77;0.67;;;21.70;99.90;;;;;;5011423;28;20216;-80
2022/08/31 11:59:47;;;;;;;0.70;0.70;;;21.60;99.90;;;;;;5014653;28;20223;-80
2022/08/31 12:02:18;;;;;;;1.38;0.75;;;21.80;99.90;;;;;;5014705;28;20547;-81
2022/08/31 12:04:47;;;;;;;2.00;0.70;;;21.70;99.90;;;;;;5013056;28;20249;-81
2022/08/31 12:07:15;;;;;;;0.73;0.60;;;21.60;99.90;;;;;;5013138;28;20243;-82
2022/08/31 12:09:59;;;;;;;3.30;0.83;;;21.50;99.90;;;;;;5012993;28;20602;-81
2022/08/31 12:12:48;;;;;;;0.70;0.70;;;21.40;99.90;;;;;;5010565;28;20246;-81
2022/08/31 12:15:30;;;;;;;0.50;0.50;;;21.40;99.90;;;;;;4962109;28;20298;-80
2022/08/31 12:17:56;;;;;;;1.63;0.50;;;21.70;99.90;;;;;;5007064;28;20222;-81
2022/08/31 12:24:00;;;;;;;0.50;0.50;;;21.30;99.90;;;;;;5013323;28;20203;-81
2022/08/31 12:26:28;;;;;;;4.30;0.80;;;21.30;99.90;;;;;;5012244;28;20579;-80
2022/08/31 12:29:15;;;;;;;0.57;0.57;;;21.40;99.90;;;;;;5014180;28;20189;-81
2022/08/31 12:31:52;;;;;;;2.67;0.80;;;21.70;99.90;;;;;;4990312;28;20224;-81
2022/08/31 12:34:19;;;;;;;0.60;0.60;;;21.50;99.90;;;;;;5010803;28;20727;-80
2022/08/31 12:36:45;;;;;;;0.60;0.60;;;21.50;99.90;;;;;;5013929;28;20669;-80
2022/08/31 12:39:25;;;;;;;0.70;0.70;;;21.60;99.90;;;;;;5004363;28;20223;-80
2022/08/31 12:42:03;;;;;;;1.73;0.70;;;21.50;99.90;;;;;;5010203;28;20226;-80
2022/08/31 12:44:40;;;;;;;0.63;0.63;;;21.40;99.90;;;;;;5009762;28;20198;-82
2022/08/31 12:47:24;;;;;;;1.70;0.60;;;21.40;99.90;;;;;;5008454;28;20198;-82
2022/08/31 12:50:24;;;;;;;0.53;0.53;;;21.30;99.90;;;;;;5012415;28;20556;-82
2022/08/31 12:53:27;;;;;;;0.60;0.60;;;21.50;99.90;;;;;;5000588;28;20666;-81
2022/08/31 12:56:14;;;;;;;1.07;0.70;;;21.50;99.90;;;;;;5020819;28;20228;-83
2022/08/31 12:58:55;;;;;;;1.17;0.83;;;21.50;99.90;;;;;;5003394;28;20210;-81
2022/08/31 13:01:23;;;;;;;0.80;0.80;;;21.60;99.90;;;;;;5012991;28;20223;-82
2022/08/31 13:03:53;;;;;;;0.93;0.60;;;21.60;99.90;;;;;;5013454;28;20219;-81
2022/08/31 13:06:25;;;;;;;3.07;0.70;;;21.40;99.90;;;;;;5013100;28;20222;-81
2022/08/31 13:08:53;;;;;;;1.03;0.70;;;21.30;99.90;;;;;;5009139;28;20358;-82
2022/08/31 13:11:50;;;;;;;1.53;1.00;;;21.40;99.90;;;;;;5024261;28;20207;-81
2022/08/31 13:14:23;;;;;;;0.50;0.50;;;21.60;99.90;;;;;;4990882;28;20273;-81
2022/08/31 13:17:02;;;;;;;2.63;0.87;;;21.60;99.90;;;;;;5010633;28;20215;-80